sensor_id;sensor_type;location;lat;lon;timestamp;pressure;altitude;pressure_sealevel;temperature;humidity
2549;BME280;1284;53.520;10.248;2023-12-22T00:00:11;98086.25;;;7.42;62.80
2549;BME280;1284;53.520;10.248;2023-12-22T00:02:36;98076.56;;;7.55;62.08
2549;BME280;1284;53.520;10.248;2023-12-22T00:05:02;98093.41;;;7.52;62.14
2549;BME280;1284;53.520;10.248;2023-12-22T00:07:27;98096.38;;;7.64;61.06
2549;BME280;1284;53.520;10.248;2023-12-22T00:09:53;98081.28;;;7.40;61.91
2549;BME280;1284;53.520;10.248;2023-12-22T00:12:19;98087.44;;;7.37;61.59
2549;BME280;1284;53.520;10.248;2023-12-22T00:14:44;98087.66;;;7.53;61.75
2549;BME280;1284;53.520;10.248;2023-12-22T00:17:10;98105.66;;;7.53;61.74
2549;BME280;1284;53.520;10.248;2023-12-22T00:19:35;98105.38;;;7.40;62.42
2549;BME280;1284;53.520;10.248;2023-12-22T00:22:01;98101.97;;;7.36;62.98
2549;BME280;1284;53.520;10.248;2023-12-22T00:24:28;98106.88;;;7.45;64.02
2549;BME280;1284;53.520;10.248;2023-12-22T00:26:54;98108.75;;;7.48;64.16
2549;BME280;1284;53.520;10.248;2023-12-22T00:29:19;98104.56;;;7.47;64.33
2549;BME280;1284;53.520;10.248;2023-12-22T00:31:45;98115.94;;;7.58;64.08
2549;BME280;1284;53.520;10.248;2023-12-22T00:34:10;98108.72;;;7.51;64.67
2549;BME280;1284;53.520;10.248;2023-12-22T00:36:36;98119.41;;;7.55;65.62
2549;BME280;1284;53.520;10.248;2023-12-22T00:39:02;98105.50;;;7.26;66.70
2549;BME280;1284;53.520;10.248;2023-12-22T00:41:28;98126.72;;;7.51;67.60
2549;BME280;1284;53.520;10.248;2023-12-22T00:43:53;98125.97;;;7.47;67.10
2549;BME280;1284;53.520;10.248;2023-12-22T00:46:19;98121.84;;;7.39;68.58
2549;BME280;1284;53.520;10.248;2023-12-22T00:48:45;98121.00;;;7.49;68.37
2549;BME280;1284;53.520;10.248;2023-12-22T00:51:11;98130.84;;;7.59;68.96
2549;BME280;1284;53.520;10.248;2023-12-22T00:53:36;98125.34;;;8.10;69.27
2549;BME280;1284;53.520;10.248;2023-12-22T00:56:02;98139.28;;;7.94;74.53
2549;BME280;1284;53.520;10.248;2023-12-22T00:58:31;98141.88;;;8.05;74.94
2549;BME280;1284;53.520;10.248;2023-12-22T01:00:56;98146.78;;;7.73;77.55
2549;BME280;1284;53.520;10.248;2023-12-22T01:03:22;98133.69;;;7.82;77.55
2549;BME280;1284;53.520;10.248;2023-12-22T01:05:47;98120.16;;;7.92;77.62
2549;BME280;1284;53.520;10.248;2023-12-22T01:08:13;98128.06;;;7.69;78.50
2549;BME280;1284;53.520;10.248;2023-12-22T01:10:38;98128.75;;;7.36;78.95
2549;BME280;1284;53.520;10.248;2023-12-22T01:13:04;98131.06;;;7.34;79.01
2549;BME280;1284;53.520;10.248;2023-12-22T01:15:29;98135.13;;;7.53;78.82
2549;BME280;1284;53.520;10.248;2023-12-22T01:17:54;98133.00;;;7.71;78.71
2549;BME280;1284;53.520;10.248;2023-12-22T01:20:20;98130.94;;;7.48;79.41
2549;BME280;1284;53.520;10.248;2023-12-22T01:22:45;98142.75;;;7.54;79.41
2549;BME280;1284;53.520;10.248;2023-12-22T01:25:11;98136.47;;;7.71;79.43
2549;BME280;1284;53.520;10.248;2023-12-22T01:27:36;98147.63;;;7.15;82.46
2549;BME280;1284;53.520;10.248;2023-12-22T01:30:02;98151.34;;;7.28;82.45
2549;BME280;1284;53.520;10.248;2023-12-22T01:32:27;98155.78;;;6.97;83.30
2549;BME280;1284;53.520;10.248;2023-12-22T01:34:59;98151.75;;;7.26;83.89
2549;BME280;1284;53.520;10.248;2023-12-22T01:37:28;98153.81;;;7.56;82.92
2549;BME280;1284;53.520;10.248;2023-12-22T01:39:54;98184.34;;;7.66;83.98
2549;BME280;1284;53.520;10.248;2023-12-22T01:42:19;98171.88;;;6.90;89.14
2549;BME280;1284;53.520;10.248;2023-12-22T01:44:45;98185.41;;;6.59;92.85
2549;BME280;1284;53.520;10.248;2023-12-22T01:47:10;98197.28;;;6.54;93.44
2549;BME280;1284;53.520;10.248;2023-12-22T01:49:36;98177.28;;;6.80;92.11
2549;BME280;1284;53.520;10.248;2023-12-22T01:52:02;98188.94;;;6.38;92.93
2549;BME280;1284;53.520;10.248;2023-12-22T01:54:27;98169.53;;;6.16;94.70
2549;BME280;1284;53.520;10.248;2023-12-22T01:56:54;98178.38;;;5.99;95.18
2549;BME280;1284;53.520;10.248;2023-12-22T01:59:20;98183.72;;;5.75;97.35
2549;BME280;1284;53.520;10.248;2023-12-22T02:01:45;98165.78;;;5.82;96.91
2549;BME280;1284;53.520;10.248;2023-12-22T02:04:11;98165.75;;;6.07;96.77
2549;BME280;1284;53.520;10.248;2023-12-22T02:06:37;98167.25;;;6.15;96.25
2549;BME280;1284;53.520;10.248;2023-12-22T02:09:03;98164.97;;;6.10;95.94
2549;BME280;1284;53.520;10.248;2023-12-22T02:11:29;98157.78;;;6.00;96.46
2549;BME280;1284;53.520;10.248;2023-12-22T02:13:55;98156.16;;;6.20;96.00
2549;BME280;1284;53.520;10.248;2023-12-22T02:16:34;98156.19;;;6.13;95.30
2549;BME280;1284;53.520;10.248;2023-12-22T02:19:15;98151.25;;;6.01;96.28
2549;BME280;1284;53.520;10.248;2023-12-22T02:22:02;98148.59;;;6.01;97.30
2549;BME280;1284;53.520;10.248;2023-12-22T02:24:29;98133.00;;;5.85;97.13
2549;BME280;1284;53.520;10.248;2023-12-22T02:28:01;98130.34;;;5.61;98.01
2549;BME280;1284;53.520;10.248;2023-12-22T02:30:03;98149.78;;;5.68;98.05
2549;BME280;1284;53.520;10.248;2023-12-22T02:32:34;98142.91;;;5.67;98.82
2549;BME280;1284;53.520;10.248;2023-12-22T02:35:03;98141.41;;;5.63;99.72
2549;BME280;1284;53.520;10.248;2023-12-22T02:37:30;98135.56;;;6.17;97.12
2549;BME280;1284;53.520;10.248;2023-12-22T02:39:58;98141.72;;;6.07;96.98
2549;BME280;1284;53.520;10.248;2023-12-22T02:42:25;98125.34;;;5.73;98.66
2549;BME280;1284;53.520;10.248;2023-12-22T02:44:59;98129.19;;;5.86;99.60
2549;BME280;1284;53.520;10.248;2023-12-22T02:47:24;98145.59;;;5.88;99.88
2549;BME280;1284;53.520;10.248;2023-12-22T02:49:52;98129.97;;;5.59;100.00
2549;BME280;1284;53.520;10.248;2023-12-22T02:52:18;98142.09;;;5.98;100.00
2549;BME280;1284;53.520;10.248;2023-12-22T02:54:43;98147.09;;;5.93;99.87
2549;BME280;1284;53.520;10.248;2023-12-22T02:57:09;98147.47;;;5.74;100.00
2549;BME280;1284;53.520;10.248;2023-12-22T02:59:34;98157.78;;;5.93;99.60
2549;BME280;1284;53.520;10.248;2023-12-22T03:02:00;98125.75;;;5.86;99.30
2549;BME280;1284;53.520;10.248;2023-12-22T03:04:25;98144.09;;;5.31;100.00
2549;BME280;1284;53.520;10.248;2023-12-22T03:06:51;98168.47;;;5.50;100.00
2549;BME280;1284;53.520;10.248;2023-12-22T03:09:16;98168.09;;;5.66;99.28
2549;BME280;1284;53.520;10.248;2023-12-22T03:11:42;98145.56;;;5.78;98.40
2549;BME280;1284;53.520;10.248;2023-12-22T03:14:08;98142.16;;;5.56;100.00
2549;BME280;1284;53.520;10.248;2023-12-22T03:16:34;98159.72;;;5.43;100.00
2549;BME280;1284;53.520;10.248;2023-12-22T03:18:59;98155.53;;;5.49;100.00
2549;BME280;1284;53.520;10.248;2023-12-22T03:21:25;98165.03;;;5.01;100.00
2549;BME280;1284;53.520;10.248;2023-12-22T03:23:50;98153.22;;;5.19;100.00
2549;BME280;1284;53.520;10.248;2023-12-22T03:26:16;98147.50;;;5.21;99.83
2549;BME280;1284;53.520;10.248;2023-12-22T03:28:41;98156.28;;;5.21;99.81
2549;BME280;1284;53.520;10.248;2023-12-22T03:31:07;98157.03;;;5.50;97.79
2549;BME280;1284;53.520;10.248;2023-12-22T03:33:33;98165.44;;;5.48;96.37
2549;BME280;1284;53.520;10.248;2023-12-22T03:35:58;98150.56;;;5.33;95.80
2549;BME280;1284;53.520;10.248;2023-12-22T03:38:24;98151.66;;;5.71;94.88
2549;BME280;1284;53.520;10.248;2023-12-22T03:40:49;98150.16;;;5.60;94.26
2549;BME280;1284;53.520;10.248;2023-12-22T03:43:15;98143.34;;;5.34;94.51
2549;BME280;1284;53.520;10.248;2023-12-22T03:45:40;98146.72;;;4.96;95.49
2549;BME280;1284;53.520;10.248;2023-12-22T03:48:06;98132.66;;;5.09;95.77
2549;BME280;1284;53.520;10.248;2023-12-22T03:50:32;98143.28;;;4.92;95.45
2549;BME280;1284;53.520;10.248;2023-12-22T03:52:57;98150.91;;;4.76;96.75
2549;BME280;1284;53.520;10.248;2023-12-22T03:55:22;98150.94;;;5.00;96.31
2549;BME280;1284;53.520;10.248;2023-12-22T03:57:48;98141.78;;;5.19;94.18
2549;BME280;1284;53.520;10.248;2023-12-22T04:00:14;98134.56;;;5.23;94.51
2549;BME280;1284;53.520;10.248;2023-12-22T04:02:40;98141.81;;;5.01;95.42
2549;BME280;1284;53.520;10.248;2023-12-22T04:05:05;98138.75;;;5.24;95.30
2549;BME280;1284;53.520;10.248;2023-12-22T04:07:31;98138.38;;;5.29;94.32
2549;BME280;1284;53.520;10.248;2023-12-22T04:09:56;98130.75;;;5.31;94.41
2549;BME280;1284;53.520;10.248;2023-12-22T04:12:22;98113.97;;;4.99;95.98
2549;BME280;1284;53.520;10.248;2023-12-22T04:14:47;98133.44;;;5.20;95.74
2549;BME280;1284;53.520;10.248;2023-12-22T04:17:12;98115.50;;;5.28;95.28
2549;BME280;1284;53.520;10.248;2023-12-22T04:19:38;98124.28;;;5.21;95.42
2549;BME280;1284;53.520;10.248;2023-12-22T04:22:03;98107.88;;;5.16;96.06
2549;BME280;1284;53.520;10.248;2023-12-22T04:24:29;98113.59;;;5.21;96.44
2549;BME280;1284;53.520;10.248;2023-12-22T04:26:54;98107.50;;;5.10;96.85
2549;BME280;1284;53.520;10.248;2023-12-22T04:29:19;98095.28;;;5.59;94.49
2549;BME280;1284;53.520;10.248;2023-12-22T04:31:45;98110.50;;;5.58;94.35
2549;BME280;1284;53.520;10.248;2023-12-22T04:34:13;98118.47;;;5.79;95.02
2549;BME280;1284;53.520;10.248;2023-12-22T04:36:39;98100.97;;;5.64;95.77
2549;BME280;1284;53.520;10.248;2023-12-22T04:39:05;98110.53;;;5.65;95.72
2549;BME280;1284;53.520;10.248;2023-12-22T04:41:30;98115.84;;;5.65;97.45
2549;BME280;1284;53.520;10.248;2023-12-22T04:43:56;98125.72;;;6.00;96.60
2549;BME280;1284;53.520;10.248;2023-12-22T04:46:21;98124.22;;;5.64;97.19
2549;BME280;1284;53.520;10.248;2023-12-22T04:48:47;98125.75;;;5.89;96.90
2549;BME280;1284;53.520;10.248;2023-12-22T04:51:12;98133.38;;;5.77;96.76
2549;BME280;1284;53.520;10.248;2023-12-22T04:53:37;98118.06;;;5.98;95.27
2549;BME280;1284;53.520;10.248;2023-12-22T04:56:03;98125.34;;;5.91;96.86
2549;BME280;1284;53.520;10.248;2023-12-22T04:58:28;98138.72;;;5.80;96.13
2549;BME280;1284;53.520;10.248;2023-12-22T05:00:54;98115.06;;;5.86;95.25
2549;BME280;1284;53.520;10.248;2023-12-22T05:03:19;98120.00;;;5.98;95.60
2549;BME280;1284;53.520;10.248;2023-12-22T05:05:45;98128.38;;;6.00;95.73
2549;BME280;1284;53.520;10.248;2023-12-22T05:08:11;98124.59;;;5.66;97.10
2549;BME280;1284;53.520;10.248;2023-12-22T05:10:36;98112.78;;;5.88;95.98
2549;BME280;1284;53.520;10.248;2023-12-22T05:13:02;98133.38;;;5.66;95.45
2549;BME280;1284;53.520;10.248;2023-12-22T05:15:27;98124.97;;;5.85;95.32
2549;BME280;1284;53.520;10.248;2023-12-22T05:17:53;98145.22;;;5.86;93.73
2549;BME280;1284;53.520;10.248;2023-12-22T05:20:18;98130.69;;;5.98;93.36
2549;BME280;1284;53.520;10.248;2023-12-22T05:22:43;98142.91;;;5.71;93.35
2549;BME280;1284;53.520;10.248;2023-12-22T05:25:09;98159.31;;;5.44;93.97
2549;BME280;1284;53.520;10.248;2023-12-22T05:27:35;98166.56;;;5.69;93.68
2549;BME280;1284;53.520;10.248;2023-12-22T05:30:01;98158.19;;;5.67;95.44
2549;BME280;1284;53.520;10.248;2023-12-22T05:32:29;98168.09;;;5.66;96.35
2549;BME280;1284;53.520;10.248;2023-12-22T05:34:55;98176.47;;;5.72;96.33
2549;BME280;1284;53.520;10.248;2023-12-22T05:37:20;98175.31;;;5.76;95.44
2549;BME280;1284;53.520;10.248;2023-12-22T05:39:46;98155.50;;;5.67;94.87
2549;BME280;1284;53.520;10.248;2023-12-22T05:42:11;98160.09;;;5.59;94.71
2549;BME280;1284;53.520;10.248;2023-12-22T05:44:37;98158.56;;;5.69;94.46
2549;BME280;1284;53.520;10.248;2023-12-22T05:47:04;98175.34;;;5.73;92.69
2549;BME280;1284;53.520;10.248;2023-12-22T05:49:30;98182.19;;;5.42;94.12
2549;BME280;1284;53.520;10.248;2023-12-22T05:51:55;98224.16;;;5.41;95.18
2549;BME280;1284;53.520;10.248;2023-12-22T05:54:21;98261.88;;;5.47;96.58
2549;BME280;1284;53.520;10.248;2023-12-22T05:56:46;98232.50;;;5.29;97.34
2549;BME280;1284;53.520;10.248;2023-12-22T05:59:12;98227.47;;;4.96;98.30
2549;BME280;1284;53.520;10.248;2023-12-22T06:01:37;98236.59;;;4.85;98.10
2549;BME280;1284;53.520;10.248;2023-12-22T06:04:03;98203.44;;;4.79;98.15
2549;BME280;1284;53.520;10.248;2023-12-22T06:06:28;98209.19;;;4.91;96.60
2549;BME280;1284;53.520;10.248;2023-12-22T06:08:55;98218.31;;;4.83;96.84
2549;BME280;1284;53.520;10.248;2023-12-22T06:11:21;98226.75;;;5.13;96.28
2549;BME280;1284;53.520;10.248;2023-12-22T06:13:47;98229.03;;;4.97;95.12
2549;BME280;1284;53.520;10.248;2023-12-22T06:16:15;98243.88;;;5.05;94.87
2549;BME280;1284;53.520;10.248;2023-12-22T06:18:43;98257.97;;;5.09;94.07
2549;BME280;1284;53.520;10.248;2023-12-22T06:21:09;98275.38;;;4.72;96.47
2549;BME280;1284;53.520;10.248;2023-12-22T06:23:35;98256.47;;;5.05;96.34
2549;BME280;1284;53.520;10.248;2023-12-22T06:26:01;98281.19;;;4.98;94.22
2549;BME280;1284;53.520;10.248;2023-12-22T06:28:28;98262.13;;;4.86;95.65
2549;BME280;1284;53.520;10.248;2023-12-22T06:30:53;98257.50;;;4.72;95.96
2549;BME280;1284;53.520;10.248;2023-12-22T06:33:19;98256.41;;;4.87;94.39
2549;BME280;1284;53.520;10.248;2023-12-22T06:35:45;98264.25;;;4.52;96.22
2549;BME280;1284;53.520;10.248;2023-12-22T06:38:10;98257.81;;;4.60;95.61
2549;BME280;1284;53.520;10.248;2023-12-22T06:40:37;98274.69;;;4.92;95.21
2549;BME280;1284;53.520;10.248;2023-12-22T06:43:03;98277.75;;;4.98;94.35
2549;BME280;1284;53.520;10.248;2023-12-22T06:45:29;98284.56;;;4.85;94.19
2549;BME280;1284;53.520;10.248;2023-12-22T06:47:55;98292.56;;;4.85;95.31
2549;BME280;1284;53.520;10.248;2023-12-22T06:50:20;98284.97;;;4.83;97.18
2549;BME280;1284;53.520;10.248;2023-12-22T06:52:46;98286.97;;;5.21;97.68
2549;BME280;1284;53.520;10.248;2023-12-22T06:55:11;98289.66;;;5.28;93.51
2549;BME280;1284;53.520;10.248;2023-12-22T06:57:37;98296.81;;;5.00;92.65
2549;BME280;1284;53.520;10.248;2023-12-22T07:00:03;98304.00;;;4.85;92.31
2549;BME280;1284;53.520;10.248;2023-12-22T07:02:29;98311.56;;;4.73;92.40
2549;BME280;1284;53.520;10.248;2023-12-22T07:07:48;98327.00;;;5.21;88.90
2549;BME280;1284;53.520;10.248;2023-12-22T07:10:13;98320.03;;;4.96;88.59
2549;BME280;1284;53.520;10.248;2023-12-22T07:12:39;98326.94;;;5.07;89.19
2549;BME280;1284;53.520;10.248;2023-12-22T07:15:05;98324.31;;;5.14;89.67
2549;BME280;1284;53.520;10.248;2023-12-22T07:17:34;98330.44;;;5.18;87.86
2549;BME280;1284;53.520;10.248;2023-12-22T07:20:00;98337.00;;;5.56;87.48
2549;BME280;1284;53.520;10.248;2023-12-22T07:22:28;98347.28;;;5.54;86.24
2549;BME280;1284;53.520;10.248;2023-12-22T07:24:54;98342.34;;;5.49;85.97
2549;BME280;1284;53.520;10.248;2023-12-22T07:27:21;98344.28;;;5.66;86.65
2549;BME280;1284;53.520;10.248;2023-12-22T07:29:46;98359.91;;;5.71;86.95
2549;BME280;1284;53.520;10.248;2023-12-22T07:32:12;98359.84;;;5.50;88.05
2549;BME280;1284;53.520;10.248;2023-12-22T07:34:37;98362.19;;;5.62;86.83
2549;BME280;1284;53.520;10.248;2023-12-22T07:37:03;98372.13;;;5.69;87.13
2549;BME280;1284;53.520;10.248;2023-12-22T07:39:30;98384.38;;;5.84;86.75
2549;BME280;1284;53.520;10.248;2023-12-22T07:41:55;98388.91;;;5.76;86.85
2549;BME280;1284;53.520;10.248;2023-12-22T07:44:21;98390.81;;;5.69;87.00
2549;BME280;1284;53.520;10.248;2023-12-22T07:46:58;98390.88;;;5.93;85.65
2549;BME280;1284;53.520;10.248;2023-12-22T07:49:25;98408.03;;;5.89;86.51
2549;BME280;1284;53.520;10.248;2023-12-22T07:51:52;98411.09;;;5.91;86.29
2549;BME280;1284;53.520;10.248;2023-12-22T07:54:17;98423.94;;;5.57;87.05
2549;BME280;1284;53.520;10.248;2023-12-22T07:56:43;98434.97;;;5.45;90.45
2549;BME280;1284;53.520;10.248;2023-12-22T07:59:09;98418.84;;;5.24;92.60
2549;BME280;1284;53.520;10.248;2023-12-22T08:01:34;98424.50;;;5.08;94.45
2549;BME280;1284;53.520;10.248;2023-12-22T08:04:00;98429.16;;;5.25;93.14
2549;BME280;1284;53.520;10.248;2023-12-22T08:06:25;98438.25;;;5.17;94.16
2549;BME280;1284;53.520;10.248;2023-12-22T08:08:50;98433.84;;;5.53;92.78
2549;BME280;1284;53.520;10.248;2023-12-22T08:11:16;98442.84;;;5.20;93.76
2549;BME280;1284;53.520;10.248;2023-12-22T08:13:42;98439.81;;;5.25;94.05
2549;BME280;1284;53.520;10.248;2023-12-22T08:16:08;98446.78;;;5.47;94.58
2549;BME280;1284;53.520;10.248;2023-12-22T08:18:33;98471.94;;;5.46;93.92
2549;BME280;1284;53.520;10.248;2023-12-22T08:20:59;98476.47;;;5.35;93.79
2549;BME280;1284;53.520;10.248;2023-12-22T08:23:24;98496.19;;;5.20;95.05
2549;BME280;1284;53.520;10.248;2023-12-22T08:25:49;98480.47;;;5.01;96.43
2549;BME280;1284;53.520;10.248;2023-12-22T08:28:15;98463.38;;;5.13;96.89
2549;BME280;1284;53.520;10.248;2023-12-22T08:30:40;98480.88;;;5.07;96.72
2549;BME280;1284;53.520;10.248;2023-12-22T08:33:06;98486.41;;;4.84;97.28
2549;BME280;1284;53.520;10.248;2023-12-22T08:35:31;98506.63;;;4.85;98.34
2549;BME280;1284;53.520;10.248;2023-12-22T08:37:57;98502.81;;;4.86;99.40
2549;BME280;1284;53.520;10.248;2023-12-22T08:40:22;98496.91;;;5.10;97.67
2549;BME280;1284;53.520;10.248;2023-12-22T08:42:52;98500.34;;;5.14;97.65
2549;BME280;1284;53.520;10.248;2023-12-22T08:45:20;98494.22;;;5.07;97.99
2549;BME280;1284;53.520;10.248;2023-12-22T08:47:46;98506.81;;;5.17;97.39
2549;BME280;1284;53.520;10.248;2023-12-22T08:50:12;98506.13;;;5.23;97.57
2549;BME280;1284;53.520;10.248;2023-12-22T08:52:38;98499.56;;;5.14;97.67
2549;BME280;1284;53.520;10.248;2023-12-22T08:55:04;98508.19;;;5.47;97.70
2549;BME280;1284;53.520;10.248;2023-12-22T08:57:30;98518.56;;;5.67;96.87
2549;BME280;1284;53.520;10.248;2023-12-22T08:59:57;98516.41;;;5.93;95.73
2549;BME280;1284;53.520;10.248;2023-12-22T09:02:22;98516.31;;;5.79;93.92
2549;BME280;1284;53.520;10.248;2023-12-22T09:04:48;98512.22;;;5.99;93.03
2549;BME280;1284;53.520;10.248;2023-12-22T09:07:13;98512.63;;;5.98;92.81
2549;BME280;1284;53.520;10.248;2023-12-22T09:09:39;98523.13;;;5.63;93.15
2549;BME280;1284;53.520;10.248;2023-12-22T09:12:05;98529.66;;;5.72;91.59
2549;BME280;1284;53.520;10.248;2023-12-22T09:14:31;98513.84;;;5.39;91.35
2549;BME280;1284;53.520;10.248;2023-12-22T09:16:57;98511.19;;;5.46;90.19
2549;BME280;1284;53.520;10.248;2023-12-22T09:19:22;98507.75;;;5.42;89.60
2549;BME280;1284;53.520;10.248;2023-12-22T09:21:48;98494.16;;;5.65;88.59
2549;BME280;1284;53.520;10.248;2023-12-22T09:24:14;98510.88;;;5.62;87.50
2549;BME280;1284;53.520;10.248;2023-12-22T09:26:41;98512.13;;;5.75;86.87
2549;BME280;1284;53.520;10.248;2023-12-22T09:29:07;98515.91;;;5.70;86.98
2549;BME280;1284;53.520;10.248;2023-12-22T09:31:32;98531.19;;;5.77;85.37
2549;BME280;1284;53.520;10.248;2023-12-22T09:33:58;98540.25;;;5.62;84.14
2549;BME280;1284;53.520;10.248;2023-12-22T09:36:23;98525.47;;;5.75;85.06
2549;BME280;1284;53.520;10.248;2023-12-22T09:38:48;98533.09;;;5.80;83.86
2549;BME280;1284;53.520;10.248;2023-12-22T09:41:14;98526.41;;;6.17;83.95
2549;BME280;1284;53.520;10.248;2023-12-22T09:43:42;98531.00;;;6.17;81.63
2549;BME280;1284;53.520;10.248;2023-12-22T09:46:08;98549.63;;;5.99;83.02
2549;BME280;1284;53.520;10.248;2023-12-22T09:48:36;98550.03;;;6.05;82.75
2549;BME280;1284;53.520;10.248;2023-12-22T09:51:05;98550.53;;;6.46;82.63
2549;BME280;1284;53.520;10.248;2023-12-22T09:53:32;98557.06;;;6.73;81.21
2549;BME280;1284;53.520;10.248;2023-12-22T09:55:59;98569.31;;;6.95;80.56
2549;BME280;1284;53.520;10.248;2023-12-22T09:58:24;98559.38;;;7.06;79.52
2549;BME280;1284;53.520;10.248;2023-12-22T10:00:51;98556.66;;;7.38;78.87
2549;BME280;1284;53.520;10.248;2023-12-22T10:03:19;98543.66;;;7.36;77.71
2549;BME280;1284;53.520;10.248;2023-12-22T10:05:46;98540.25;;;7.25;77.58
2549;BME280;1284;53.520;10.248;2023-12-22T10:08:12;98541.03;;;7.08;76.75
2549;BME280;1284;53.520;10.248;2023-12-22T10:10:39;98543.28;;;7.30;76.72
2549;BME280;1284;53.520;10.248;2023-12-22T10:13:05;98550.53;;;7.48;76.02
2549;BME280;1284;53.520;10.248;2023-12-22T10:15:37;98544.81;;;7.28;76.83
2549;BME280;1284;53.520;10.248;2023-12-22T10:18:05;98528.78;;;7.07;77.03
2549;BME280;1284;53.520;10.248;2023-12-22T10:20:31;98530.72;;;6.75;78.52
2549;BME280;1284;53.520;10.248;2023-12-22T10:22:56;98542.16;;;6.61;77.13
2549;BME280;1284;53.520;10.248;2023-12-22T10:25:27;98537.19;;;6.74;79.36
2549;BME280;1284;53.520;10.248;2023-12-22T10:27:54;98543.69;;;6.80;79.73
2549;BME280;1284;53.520;10.248;2023-12-22T10:30:20;98547.50;;;6.89;79.88
2549;BME280;1284;53.520;10.248;2023-12-22T10:32:46;98542.16;;;7.07;78.85
2549;BME280;1284;53.520;10.248;2023-12-22T10:35:12;98531.09;;;6.77;79.58
2549;BME280;1284;53.520;10.248;2023-12-22T10:37:38;98540.28;;;6.79;78.66
2549;BME280;1284;53.520;10.248;2023-12-22T10:40:10;98531.84;;;6.67;80.10
2549;BME280;1284;53.520;10.248;2023-12-22T10:42:43;98532.22;;;6.76;80.17
2549;BME280;1284;53.520;10.248;2023-12-22T10:45:12;98545.59;;;6.76;81.37
2549;BME280;1284;53.520;10.248;2023-12-22T10:47:38;98533.00;;;6.83;80.68
2549;BME280;1284;53.520;10.248;2023-12-22T10:50:05;98531.84;;;6.74;80.72
2549;BME280;1284;53.520;10.248;2023-12-22T10:52:31;98537.97;;;6.74;80.57
2549;BME280;1284;53.520;10.248;2023-12-22T10:54:59;98530.31;;;6.62;82.17
2549;BME280;1284;53.520;10.248;2023-12-22T10:57:26;98544.84;;;6.86;80.98
2549;BME280;1284;53.520;10.248;2023-12-22T10:59:52;98541.03;;;6.87;80.34
2549;BME280;1284;53.520;10.248;2023-12-22T11:02:19;98550.94;;;6.97;80.04
2549;BME280;1284;53.520;10.248;2023-12-22T11:04:57;98521.16;;;7.02;79.22
2549;BME280;1284;53.520;10.248;2023-12-22T11:07:25;98558.63;;;7.19;79.18
2549;BME280;1284;53.520;10.248;2023-12-22T11:09:53;98547.09;;;7.40;79.08
2549;BME280;1284;53.520;10.248;2023-12-22T11:12:21;98550.19;;;7.03;78.67
2549;BME280;1284;53.520;10.248;2023-12-22T11:14:46;98571.22;;;6.98;80.97
2549;BME280;1284;53.520;10.248;2023-12-22T11:17:21;98585.31;;;6.60;82.68
2549;BME280;1284;53.520;10.248;2023-12-22T11:19:49;98587.25;;;6.77;81.74
2549;BME280;1284;53.520;10.248;2023-12-22T11:22:18;98585.31;;;6.70;81.77
2549;BME280;1284;53.520;10.248;2023-12-22T11:24:48;98564.72;;;6.95;81.13
2549;BME280;1284;53.520;10.248;2023-12-22T11:27:20;98565.88;;;6.73;83.03
2549;BME280;1284;53.520;10.248;2023-12-22T11:29:50;98561.66;;;6.79;85.21
2549;BME280;1284;53.520;10.248;2023-12-22T11:32:16;98579.25;;;7.05;83.67
2549;BME280;1284;53.520;10.248;2023-12-22T11:34:43;98589.16;;;6.69;85.00
2549;BME280;1284;53.520;10.248;2023-12-22T11:37:15;98586.91;;;7.06;84.63
2549;BME280;1284;53.520;10.248;2023-12-22T11:39:42;98586.53;;;7.25;84.02
2549;BME280;1284;53.520;10.248;2023-12-22T11:42:11;98574.28;;;6.75;86.93
2549;BME280;1284;53.520;10.248;2023-12-22T11:44:38;98576.56;;;6.77;86.97
2549;BME280;1284;53.520;10.248;2023-12-22T11:47:08;98571.59;;;6.82;87.44
2549;BME280;1284;53.520;10.248;2023-12-22T11:49:37;98577.72;;;7.07;86.46
2549;BME280;1284;53.520;10.248;2023-12-22T11:52:16;98573.91;;;6.94;86.35
2549;BME280;1284;53.520;10.248;2023-12-22T11:54:49;98567.03;;;7.04;86.14
2549;BME280;1284;53.520;10.248;2023-12-22T11:59:53;98566.63;;;7.23;85.99
2549;BME280;1284;53.520;10.248;2023-12-22T12:02:18;98550.97;;;7.21;85.50
2549;BME280;1284;53.520;10.248;2023-12-22T12:04:47;98567.78;;;7.25;85.18
2549;BME280;1284;53.520;10.248;2023-12-22T12:10:08;98567.03;;;7.07;86.40
2549;BME280;1284;53.520;10.248;2023-12-22T12:12:34;98571.59;;;7.10;85.40
2549;BME280;1284;53.520;10.248;2023-12-22T12:15:19;98566.25;;;7.17;86.00
2549;BME280;1284;53.520;10.248;2023-12-22T12:17:49;98571.59;;;7.28;86.50
2549;BME280;1284;53.520;10.248;2023-12-22T12:20:16;98568.50;;;7.44;85.06
2549;BME280;1284;53.520;10.248;2023-12-22T12:22:42;98573.88;;;7.51;85.40
2549;BME280;1284;53.520;10.248;2023-12-22T12:25:09;98562.81;;;7.35;85.38
2549;BME280;1284;53.520;10.248;2023-12-22T12:27:36;98565.88;;;7.22;85.46
2549;BME280;1284;53.520;10.248;2023-12-22T12:30:11;98559.31;;;7.59;83.79
2549;BME280;1284;53.520;10.248;2023-12-22T12:32:37;98561.22;;;7.65;83.38
2549;BME280;1284;53.520;10.248;2023-12-22T12:35:04;98570.03;;;7.59;84.47
2549;BME280;1284;53.520;10.248;2023-12-22T12:37:29;98565.06;;;7.54;84.69
2549;BME280;1284;53.520;10.248;2023-12-22T12:39:58;98568.91;;;7.39;85.66
2549;BME280;1284;53.520;10.248;2023-12-22T12:42:27;98557.84;;;7.19;85.28
2549;BME280;1284;53.520;10.248;2023-12-22T12:44:54;98573.13;;;7.32;85.64
2549;BME280;1284;53.520;10.248;2023-12-22T12:47:19;98564.72;;;7.09;84.54
2549;BME280;1284;53.520;10.248;2023-12-22T12:49:45;98560.50;;;7.33;84.33
2549;BME280;1284;53.520;10.248;2023-12-22T12:52:13;98564.34;;;7.21;83.36
2549;BME280;1284;53.520;10.248;2023-12-22T12:54:39;98534.53;;;7.09;85.10
2549;BME280;1284;53.520;10.248;2023-12-22T12:57:05;98550.94;;;7.14;84.95
2549;BME280;1284;53.520;10.248;2023-12-22T12:59:30;98552.50;;;7.01;85.44
2549;BME280;1284;53.520;10.248;2023-12-22T13:01:56;98540.63;;;7.13;86.49
2549;BME280;1284;53.520;10.248;2023-12-22T13:04:23;98557.06;;;7.18;87.34
2549;BME280;1284;53.520;10.248;2023-12-22T13:06:49;98557.84;;;6.98;89.08
2549;BME280;1284;53.520;10.248;2023-12-22T13:09:15;98574.66;;;6.77;91.42
2549;BME280;1284;53.520;10.248;2023-12-22T13:11:42;98568.50;;;6.70;92.50
2549;BME280;1284;53.520;10.248;2023-12-22T13:14:11;98568.91;;;6.89;91.53
2549;BME280;1284;53.520;10.248;2023-12-22T13:16:38;98569.69;;;6.93;91.67
2549;BME280;1284;53.520;10.248;2023-12-22T13:19:04;98564.72;;;7.16;90.62
2549;BME280;1284;53.520;10.248;2023-12-22T13:21:30;98557.84;;;7.08;90.91
2549;BME280;1284;53.520;10.248;2023-12-22T13:24:12;98557.06;;;6.97;92.02
2549;BME280;1284;53.520;10.248;2023-12-22T13:26:38;98552.88;;;7.00;91.98